Time;durP1;ratioP1;P1;durP2;ratioP2;P2;SDS_P1;SDS_P2;PMS_P1;PMS_P2;Temp;Humidity;BMP_temperature;BMP_pressure;BME280_temperature;BME280_humidity;BME280_pressure;Samples;Min_cycle;Max_cycle;Signal;HPM_P1;HPM_P2
2021/04/15 00:00:40;;;;;;;7.10;3.47;;;3.60;78.50;;;;;;5094712;28;20553;-35
2021/04/15 00:03:15;;;;;;;6.13;4.38;;;3.50;78.40;;;;;;5094226;28;20504;-35
2021/04/15 00:05:41;;;;;;;4.03;3.08;;;3.30;79.40;;;;;;5094503;28;20115;-34
2021/04/15 00:08:07;;;;;;;6.80;3.30;;;3.10;80.20;;;;;;5094133;28;20625;-36
2021/04/15 00:10:39;;;;;;;5.63;3.25;;;3.00;80.40;;;;;;5094043;28;20055;-36
2021/04/15 00:13:08;;;;;;;7.05;2.80;;;2.80;81.00;;;;;;5094086;28;20019;-36
2021/04/15 00:15:34;;;;;;;4.43;2.67;;;2.70;81.40;;;;;;5094359;28;20020;-35
2021/04/15 00:17:59;;;;;;;4.22;3.42;;;2.60;81.70;;;;;;5094351;28;20027;-36
2021/04/15 00:20:25;;;;;;;6.55;3.42;;;2.60;82.20;;;;;;5093885;28;20024;-36
2021/04/15 00:22:51;;;;;;;4.43;3.25;;;2.70;81.70;;;;;;5094196;28;20077;-35
2021/04/15 00:25:17;;;;;;;10.32;3.45;;;2.50;81.70;;;;;;5093980;28;20032;-35
2021/04/15 00:27:43;;;;;;;4.97;3.45;;;2.50;82.00;;;;;;5093295;28;20024;-37
2021/04/15 00:30:10;;;;;;;4.60;3.03;;;2.50;82.30;;;;;;5093775;28;20020;-36
2021/04/15 00:32:36;;;;;;;8.15;3.42;;;2.50;82.30;;;;;;5092382;28;20052;-35
2021/04/15 00:35:02;;;;;;;5.43;3.03;;;2.50;82.40;;;;;;5092539;28;20090;-35
2021/04/15 00:37:28;;;;;;;7.63;3.05;;;2.50;82.20;;;;;;5093966;28;20024;-35
2021/04/15 00:39:53;;;;;;;5.57;2.75;;;2.30;82.40;;;;;;5093848;28;20107;-35
2021/04/15 00:42:19;;;;;;;6.20;3.80;;;2.40;82.60;;;;;;5093870;28;20024;-35
2021/04/15 00:44:45;;;;;;;9.52;3.92;;;2.40;82.70;;;;;;5093875;28;20028;-35
2021/04/15 00:47:21;;;;;;;5.65;3.35;;;2.50;82.90;;;;;;5092014;28;20048;-35
2021/04/15 00:50:01;;;;;;;6.22;3.42;;;2.60;82.90;;;;;;5093804;28;20427;-35
2021/04/15 00:52:32;;;;;;;9.52;4.43;;;2.60;82.20;;;;;;5094008;28;20109;-35
2021/04/15 00:55:12;;;;;;;7.03;3.88;;;2.50;81.70;;;;;;5093762;28;20023;-35
2021/04/15 00:57:40;;;;;;;5.93;3.67;;;2.40;81.90;;;;;;5093412;28;20379;-35
2021/04/15 01:00:10;;;;;;;4.50;3.33;;;2.40;82.20;;;;;;5093366;28;20051;-36
2021/04/15 01:02:37;;;;;;;8.90;4.20;;;2.50;81.80;;;;;;5093037;28;20024;-35
2021/04/15 01:05:21;;;;;;;3.90;2.85;;;2.40;82.00;;;;;;5093433;28;20127;-35
2021/04/15 01:07:48;;;;;;;8.23;3.47;;;2.50;82.30;;;;;;5093374;28;20028;-35
2021/04/15 01:10:13;;;;;;;5.20;3.65;;;2.50;82.10;;;;;;5093045;28;20028;-35
2021/04/15 01:13:05;;;;;;;5.97;4.05;;;2.50;82.20;;;;;;5093133;28;20102;-35
2021/04/15 01:15:46;;;;;;;5.43;3.58;;;2.40;82.30;;;;;;5093437;28;20032;-35
2021/04/15 01:18:15;;;;;;;7.45;4.10;;;2.30;82.60;;;;;;5093522;28;20027;-36
2021/04/15 01:20:43;;;;;;;7.18;4.35;;;2.20;83.00;;;;;;5092976;28;20497;-35
2021/04/15 01:23:43;;;;;;;8.73;4.50;;;2.30;83.10;;;;;;5092993;28;20035;-35
2021/04/15 01:26:18;;;;;;;5.78;4.63;;;2.40;82.70;;;;;;5092464;28;20032;-35
2021/04/15 01:28:55;;;;;;;12.15;4.82;;;2.60;82.40;;;;;;5093210;28;20024;-36
2021/04/15 01:31:35;;;;;;;7.35;4.53;;;2.80;82.10;;;;;;5093134;28;20028;-36
2021/04/15 01:34:08;;;;;;;8.38;4.65;;;2.90;81.50;;;;;;5093495;28;20028;-36
2021/04/15 01:36:48;;;;;;;9.93;5.00;;;3.10;80.90;;;;;;5093934;28;20035;-36
2021/04/15 01:39:18;;;;;;;5.00;4.10;;;3.10;80.80;;;;;;5096897;28;20056;-36
2021/04/15 01:41:59;;;;;;;10.32;5.80;;;3.00;81.20;;;;;;5097443;28;20059;-35
2021/04/15 01:44:56;;;;;;;10.40;5.22;;;3.10;80.90;;;;;;5097339;28;20533;-36
2021/04/15 01:47:38;;;;;;;5.63;5.00;;;3.20;80.20;;;;;;5096556;28;20363;-36
2021/04/15 01:50:14;;;;;;;10.15;5.68;;;2.90;81.20;;;;;;5095717;28;20028;-36
2021/04/15 01:52:42;;;;;;;10.20;5.95;;;2.80;81.90;;;;;;5095585;28;20038;-36
2021/04/15 01:55:29;;;;;;;11.55;5.85;;;2.60;82.50;;;;;;5096671;28;20078;-36
2021/04/15 01:57:59;;;;;;;10.57;6.65;;;2.60;82.20;;;;;;5096954;28;20030;-36
2021/04/15 02:00:29;;;;;;;6.68;4.85;;;2.40;83.10;;;;;;5096939;28;20024;-41
2021/04/15 02:03:05;;;;;;;6.22;4.65;;;2.40;82.20;;;;;;5096530;28;20032;-36
2021/04/15 02:05:36;;;;;;;8.25;5.00;;;2.30;82.10;;;;;;5095560;28;20050;-36
2021/04/15 02:08:24;;;;;;;7.03;5.18;;;2.00;82.40;;;;;;5096862;28;20088;-36
2021/04/15 02:10:54;;;;;;;8.27;5.00;;;1.70;83.60;;;;;;5096337;28;20544;-35
2021/04/15 02:13:22;;;;;;;11.57;5.57;;;1.50;84.40;;;;;;5096680;28;20024;-35
2021/04/15 02:15:52;;;;;;;7.72;5.80;;;1.40;84.70;;;;;;5096298;28;20514;-36
2021/04/15 02:18:27;;;;;;;11.52;6.55;;;1.50;84.70;;;;;;5096543;28;20024;-36
2021/04/15 02:21:10;;;;;;;12.00;7.45;;;1.40;85.40;;;;;;5096485;28;20107;-36
2021/04/15 02:23:48;;;;;;;15.15;8.50;;;1.40;85.90;;;;;;5095192;28;20031;-36
2021/04/15 02:26:20;;;;;;;12.90;7.57;;;1.40;86.30;;;;;;5096094;28;20028;-36
2021/04/15 02:28:53;;;;;;;10.40;7.15;;;1.40;86.20;;;;;;5096391;28;20468;-36
2021/04/15 02:31:26;;;;;;;9.70;6.60;;;1.50;86.20;;;;;;5097037;28;20103;-36
2021/04/15 02:34:06;;;;;;;10.20;6.28;;;1.50;86.10;;;;;;5096659;28;20032;-36
2021/04/15 02:37:02;;;;;;;10.60;6.70;;;1.50;85.90;;;;;;5096491;28;20016;-35
2021/04/15 02:39:35;;;;;;;8.68;6.13;;;1.40;85.30;;;;;;5095239;28;20035;-35
2021/04/15 02:42:07;;;;;;;12.15;7.55;;;1.20;85.80;;;;;;5096505;28;20028;-35
2021/04/15 02:44:49;;;;;;;10.57;7.13;;;1.10;86.40;;;;;;5095863;28;20024;-35
2021/04/15 02:47:34;;;;;;;14.13;7.07;;;1.20;86.40;;;;;;5095833;28;20068;-35
2021/04/15 02:50:01;;;;;;;10.43;6.72;;;1.20;86.60;;;;;;5094857;28;20376;-35
2021/04/15 02:52:31;;;;;;;9.23;6.28;;;1.30;86.50;;;;;;5096053;28;20446;-36
2021/04/15 02:55:10;;;;;;;16.05;7.80;;;1.30;86.50;;;;;;5094499;28;20065;-36
2021/04/15 02:57:46;;;;;;;10.75;6.93;;;1.30;86.60;;;;;;5095561;28;20028;-36
2021/04/15 03:00:17;;;;;;;9.85;6.70;;;1.30;86.40;;;;;;5095673;28;20035;-35
2021/04/15 03:02:59;;;;;;;14.93;6.53;;;1.30;86.20;;;;;;5095379;28;20020;-35
2021/04/15 03:05:27;;;;;;;10.52;7.38;;;1.30;85.60;;;;;;5095704;28;20056;-35
2021/04/15 03:07:58;;;;;;;8.57;7.10;;;1.20;85.70;;;;;;5095632;28;20483;-36
2021/04/15 03:10:31;;;;;;;;;;;1.20;85.70;;;;;;5096164;28;20024;-36
2021/04/15 03:13:03;;;;;;;11.13;7.15;;;1.20;85.70;;;;;;5095209;28;20015;-36
2021/04/15 03:15:32;;;;;;;12.48;8.13;;;1.20;85.90;;;;;;5095368;28;20026;-35
2021/04/15 03:18:01;;;;;;;11.15;7.25;;;1.20;85.70;;;;;;5093880;28;20059;-38
2021/04/15 03:20:37;;;;;;;10.73;7.30;;;1.20;86.00;;;;;;5095126;28;20026;-36
2021/04/15 03:23:25;;;;;;;20.00;7.63;;;1.20;86.50;;;;;;5095366;28;20032;-36
2021/04/15 03:25:55;;;;;;;15.05;7.93;;;1.30;86.40;;;;;;5094899;28;20020;-36
2021/04/15 03:28:43;;;;;;;12.45;7.78;;;1.20;86.40;;;;;;5095112;28;20098;-35
2021/04/15 03:31:16;;;;;;;11.45;6.80;;;1.20;86.50;;;;;;5094821;28;20388;-36
2021/04/15 03:33:50;;;;;;;10.63;7.47;;;1.20;86.60;;;;;;5094769;28;20073;-36
2021/04/15 03:36:27;;;;;;;14.13;7.78;;;1.30;86.00;;;;;;5095098;28;20031;-36
2021/04/15 03:39:01;;;;;;;17.05;8.43;;;1.30;86.00;;;;;;5095355;28;20480;-36
2021/04/15 03:41:49;;;;;;;18.98;8.43;;;1.30;86.00;;;;;;5094555;28;20035;-36
2021/04/15 03:44:14;;;;;;;14.07;7.35;;;1.30;85.60;;;;;;5094851;28;20018;-36
2021/04/15 03:46:46;;;;;;;16.70;8.07;;;1.20;85.80;;;;;;5094567;28;20020;-36
2021/04/15 03:49:21;;;;;;;12.45;7.82;;;1.20;85.90;;;;;;5094508;28;20028;-36
2021/04/15 03:51:51;;;;;;;13.35;8.05;;;1.30;85.60;;;;;;5094741;28;20020;-36
2021/04/15 03:54:24;;;;;;;14.65;9.10;;;1.30;85.60;;;;;;5094486;28;20077;-36
2021/04/15 03:56:57;;;;;;;18.23;8.73;;;1.30;85.40;;;;;;5093170;28;20430;-35
2021/04/15 03:59:41;;;;;;;13.20;8.73;;;1.20;85.80;;;;;;5094631;28;20399;-35
2021/04/15 04:02:21;;;;;;;14.82;8.15;;;1.10;86.00;;;;;;5094123;28;20035;-35
2021/04/15 04:04:52;;;;;;;13.93;7.72;;;0.80;85.70;;;;;;5094598;28;20028;-35
2021/04/15 04:07:30;;;;;;;12.57;8.02;;;0.80;86.00;;;;;;5094083;28;20119;-35
2021/04/15 04:10:28;;;;;;;16.20;9.07;;;0.60;86.90;;;;;;5094093;28;20077;-35
2021/04/15 04:13:12;;;;;;;15.20;8.65;;;0.80;86.90;;;;;;5093065;28;20043;-35
2021/04/15 04:15:42;;;;;;;12.82;8.70;;;0.80;86.60;;;;;;5094230;28;20368;-35
2021/04/15 04:18:19;;;;;;;16.67;8.65;;;1.10;86.40;;;;;;5094036;28;20498;-35
2021/04/15 04:20:45;;;;;;;13.05;7.68;;;1.40;85.10;;;;;;5094002;28;20383;-35
2021/04/15 04:23:39;;;;;;;14.55;9.23;;;1.30;84.90;;;;;;5094163;28;20024;-36
2021/04/15 04:26:19;;;;;;;16.90;8.20;;;1.30;85.00;;;;;;5093830;28;20024;-35
2021/04/15 04:29:00;;;;;;;15.05;8.57;;;1.30;85.50;;;;;;5093788;28;20074;-35
2021/04/15 04:31:29;;;;;;;;;;;1.40;84.80;;;;;;5094521;28;20024;-35
2021/04/15 04:33:56;;;;;;;15.25;7.72;;;1.50;84.50;;;;;;5093586;28;19907;-35
2021/04/15 04:36:24;;;;;;;15.25;8.38;;;1.30;84.80;;;;;;5093670;28;20357;-35
2021/04/15 04:38:56;;;;;;;15.88;8.75;;;1.30;85.10;;;;;;5093622;28;20036;-35
2021/04/15 04:41:28;;;;;;;18.13;8.77;;;1.30;85.60;;;;;;5093601;28;20042;-35
2021/04/15 04:43:56;;;;;;;15.32;9.05;;;1.10;85.80;;;;;;5093835;28;20027;-36
2021/04/15 04:46:51;;;;;;;14.57;9.00;;;1.20;85.90;;;;;;5094071;28;20521;-35
2021/04/15 04:49:31;;;;;;;15.10;7.93;;;1.20;85.80;;;;;;5093435;28;20048;-35
2021/04/15 04:52:02;;;;;;;13.07;8.70;;;1.10;85.90;;;;;;5093911;28;20028;-35
2021/04/15 04:54:28;;;;;;;17.92;8.93;;;1.00;85.90;;;;;;5093677;28;20373;-35
2021/04/15 04:57:00;;;;;;;15.57;9.68;;;1.00;86.00;;;;;;5093687;28;20533;-35
2021/04/15 04:59:30;;;;;;;17.08;9.43;;;1.10;85.30;;;;;;5093281;28;20028;-36
2021/04/15 05:01:56;;;;;;;16.65;8.98;;;1.00;85.60;;;;;;5093370;28;20055;-36
2021/04/15 05:04:24;;;;;;;20.65;10.32;;;0.90;86.10;;;;;;5093894;28;20032;-35
2021/04/15 05:06:50;;;;;;;17.70;9.38;;;0.90;86.20;;;;;;5093515;28;20476;-35
2021/04/15 05:09:38;;;;;;;17.33;9.88;;;0.90;86.20;;;;;;5093344;28;20024;-35
2021/04/15 05:12:13;;;;;;;13.30;9.10;;;0.90;86.30;;;;;;5092975;28;20016;-35
2021/04/15 05:14:39;;;;;;;13.98;8.70;;;0.90;86.20;;;;;;5093358;28;20032;-35
2021/04/15 05:17:31;;;;;;;12.90;8.35;;;0.90;85.70;;;;;;5093515;28;20059;-35
2021/04/15 05:20:01;;;;;;;13.55;8.60;;;0.90;85.80;;;;;;5093516;28;20075;-35
2021/04/15 05:22:32;;;;;;;17.17;9.43;;;0.90;86.10;;;;;;5093254;28;20500;-35
2021/04/15 05:25:06;;;;;;;14.30;9.57;;;1.00;86.20;;;;;;5093281;28;20032;-36
2021/04/15 05:27:35;;;;;;;18.88;10.82;;;1.00;86.10;;;;;;5093383;28;20054;-36
2021/04/15 05:30:40;;;;;;;13.98;8.85;;;1.10;86.10;;;;;;5093155;28;20028;-36
2021/04/15 05:33:08;;;;;;;17.35;9.45;;;1.20;85.80;;;;;;5091680;28;20036;-36
2021/04/15 05:35:38;;;;;;;12.70;8.50;;;1.30;85.70;;;;;;5092942;28;20023;-35
2021/04/15 05:38:06;;;;;;;13.40;8.57;;;1.30;84.90;;;;;;5093088;28;20020;-35
2021/04/15 05:40:33;;;;;;;17.40;8.32;;;1.30;85.40;;;;;;5092833;28;20024;-35
2021/04/15 05:43:23;;;;;;;13.75;9.38;;;1.30;85.20;;;;;;5092806;28;20372;-35
2021/04/15 05:45:56;;;;;;;24.48;9.40;;;1.30;85.50;;;;;;5092794;28;20052;-35
2021/04/15 05:48:26;;;;;;;17.27;8.60;;;1.50;85.30;;;;;;5091377;28;20048;-36
2021/04/15 05:50:54;;;;;;;19.70;9.50;;;1.70;85.00;;;;;;5092700;28;20035;-36
2021/04/15 05:53:36;;;;;;;17.38;9.15;;;1.80;84.50;;;;;;5092778;28;20091;-36
2021/04/15 05:56:10;;;;;;;12.63;7.55;;;2.10;84.50;;;;;;5093050;28;20025;-36
2021/04/15 05:58:39;;;;;;;19.60;7.35;;;2.60;82.60;;;;;;5091841;28;20442;-35
2021/04/15 06:01:12;;;;;;;14.70;7.30;;;2.50;82.20;;;;;;5092454;28;20032;-35
2021/04/15 06:03:47;;;;;;;16.88;7.45;;;2.80;81.90;;;;;;5092588;28;20029;-35
2021/04/15 06:06:17;;;;;;;17.08;7.18;;;2.60;82.00;;;;;;5092492;28;20024;-36
2021/04/15 06:08:46;;;;;;;22.02;6.88;;;2.80;81.60;;;;;;5092510;28;20073;-35
2021/04/15 06:11:35;;;;;;;10.07;6.45;;;2.90;81.40;;;;;;5091485;28;20034;-35
2021/04/15 06:14:21;;;;;;;16.55;8.25;;;2.90;81.20;;;;;;5092450;28;20020;-36
2021/04/15 06:17:13;;;;;;;14.25;6.28;;;2.90;81.60;;;;;;5092888;28;20028;-36
2021/04/15 06:19:43;;;;;;;8.77;6.25;;;2.80;81.50;;;;;;5092792;28;20361;-35
2021/04/15 06:22:19;;;;;;;9.50;6.93;;;3.10;80.50;;;;;;5091466;28;20401;-34
2021/04/15 06:24:49;;;;;;;10.30;6.32;;;3.30;79.50;;;;;;5093646;28;20032;-37
2021/04/15 06:27:16;;;;;;;;;;;3.20;80.10;;;;;;5094674;28;20039;-35
2021/04/15 06:30:02;;;;;;;9.15;5.88;;;3.30;79.40;;;;;;5096015;28;20355;-36
2021/04/15 06:33:09;;;;;;;8.40;4.95;;;3.50;79.00;;;;;;5095796;28;20020;-37
2021/04/15 06:35:36;;;;;;;16.10;6.60;;;3.50;78.60;;;;;;5093618;28;20093;-36
2021/04/15 06:38:24;;;;;;;11.18;4.72;;;3.50;78.60;;;;;;5094972;28;20557;-35
2021/04/15 06:41:24;;;;;;;17.42;7.40;;;3.60;78.30;;;;;;5094701;28;20024;-35
2021/04/15 06:43:52;;;;;;;10.60;5.13;;;3.70;78.20;;;;;;5095294;28;20020;-35
2021/04/15 06:46:55;;;;;;;8.30;4.70;;;3.70;78.10;;;;;;5095814;28;20024;-42
2021/04/15 06:49:43;;;;;;;9.35;5.60;;;3.80;78.00;;;;;;5093908;28;20127;-37
2021/04/15 06:52:39;;;;;;;12.40;5.75;;;4.10;76.70;;;;;;5096216;28;20016;-37
2021/04/15 06:55:31;;;;;;;9.60;5.25;;;4.20;76.40;;;;;;5095899;28;20020;-35
2021/04/15 06:58:13;;;;;;;9.63;4.65;;;4.30;75.90;;;;;;5095445;28;20096;-36
2021/04/15 07:01:17;;;;;;;9.57;5.78;;;4.30;76.20;;;;;;5094291;28;20035;-35
2021/04/15 07:04:04;;;;;;;9.95;4.93;;;4.30;76.30;;;;;;5095290;28;20511;-35
2021/04/15 07:06:42;;;;;;;8.02;5.97;;;4.40;75.90;;;;;;5095462;28;20106;-36
2021/04/15 07:09:20;;;;;;;10.18;4.93;;;4.70;75.00;;;;;;5095092;28;20052;-37
2021/04/15 07:12:01;;;;;;;8.57;4.05;;;4.50;75.20;;;;;;5094699;28;20020;-37
2021/04/15 07:15:10;;;;;;;9.55;4.68;;;4.80;74.70;;;;;;5094752;28;20078;-36
2021/04/15 07:17:57;;;;;;;10.05;5.53;;;4.90;73.50;;;;;;5093101;28;20058;-35
2021/04/15 07:20:47;;;;;;;8.63;3.72;;;5.30;71.00;;;;;;5093414;28;20035;-36
2021/04/15 07:23:30;;;;;;;9.43;3.03;;;5.50;70.40;;;;;;5094906;28;20047;-35
2021/04/15 07:26:14;;;;;;;11.75;3.10;;;5.70;69.00;;;;;;5094284;28;20341;-36
2021/04/15 07:29:04;;;;;;;7.20;3.00;;;5.50;69.60;;;;;;5094801;28;20031;-35
2021/04/15 07:31:48;;;;;;;11.50;4.10;;;5.70;68.30;;;;;;5095139;28;20032;-35
2021/04/15 07:34:30;;;;;;;10.57;3.22;;;5.80;67.90;;;;;;5094497;28;20079;-35
2021/04/15 07:37:04;;;;;;;11.68;3.53;;;6.00;68.00;;;;;;5092645;28;20052;-35
2021/04/15 07:39:36;;;;;;;4.78;2.90;;;6.00;66.90;;;;;;5096736;28;20020;-36
2021/04/15 07:42:17;;;;;;;8.50;4.35;;;6.00;67.80;;;;;;5076961;28;20435;-36
2021/04/15 07:44:58;;;;;;;;;;;6.10;67.50;;;;;;5094608;28;20047;-36
2021/04/15 07:48:02;;;;;;;5.93;3.10;;;6.30;66.70;;;;;;5094486;28;20065;-36
2021/04/15 07:50:59;;;;;;;9.93;3.92;;;6.30;65.60;;;;;;5094791;28;20472;-35
2021/04/15 07:54:02;;;;;;;7.43;3.85;;;6.40;65.00;;;;;;5094701;28;20073;-36
2021/04/15 07:56:44;;;;;;;9.05;3.70;;;6.40;65.10;;;;;;5094444;28;20024;-36
2021/04/15 07:59:43;;;;;;;8.48;3.50;;;6.50;64.20;;;;;;5093953;28;20020;-37
2021/04/15 08:02:30;;;;;;;12.93;5.45;;;7.00;63.90;;;;;;5094251;28;20063;-37
2021/04/15 08:05:26;;;;;;;7.90;2.92;;;7.10;64.10;;;;;;5094259;28;20020;-36
2021/04/15 08:08:00;;;;;;;9.88;3.47;;;7.10;62.70;;;;;;5094846;28;20024;-36
2021/04/15 08:10:32;;;;;;;9.52;2.83;;;7.30;62.20;;;;;;5094456;28;20025;-37
2021/04/15 08:13:23;;;;;;;4.90;2.92;;;6.60;64.50;;;;;;5094427;28;20024;-37
2021/04/15 08:16:13;;;;;;;6.63;3.63;;;6.30;64.70;;;;;;5093011;28;20032;-36
2021/04/15 08:19:04;;;;;;;6.45;3.45;;;6.10;65.20;;;;;;5094421;28;20087;-36
2021/04/15 08:21:41;;;;;;;7.30;4.22;;;6.00;66.40;;;;;;5093826;28;20113;-35
2021/04/15 08:24:51;;;;;;;4.70;2.83;;;6.10;65.40;;;;;;5093915;28;20066;-37
2021/04/15 08:27:41;;;;;;;6.20;2.53;;;6.00;65.30;;;;;;5091248;28;20075;-37
2021/04/15 08:30:20;;;;;;;7.88;3.58;;;5.80;65.00;;;;;;5092000;28;20059;-35
2021/04/15 08:33:06;;;;;;;6.88;3.13;;;6.10;64.10;;;;;;5093840;28;20056;-36
2021/04/15 08:36:09;;;;;;;5.35;2.13;;;6.20;64.30;;;;;;5093086;28;20020;-42
2021/04/15 08:39:12;;;;;;;3.25;2.30;;;6.10;63.10;;;;;;5093238;28;20020;-35
2021/04/15 08:41:43;;;;;;;6.65;2.53;;;5.90;62.60;;;;;;5093518;28;20032;-36
2021/04/15 08:44:29;;;;;;;5.63;1.98;;;6.20;62.10;;;;;;5091706;28;20039;-35
2021/04/15 08:47:19;;;;;;;3.95;2.15;;;6.20;61.60;;;;;;5092880;28;20099;-36
2021/04/15 08:50:28;;;;;;;4.65;1.63;;;6.30;60.60;;;;;;5093021;28;20057;-35
2021/04/15 08:53:12;;;;;;;8.90;1.98;;;6.50;58.60;;;;;;5092439;28;20024;-36
2021/04/15 08:56:13;;;;;;;6.43;2.65;;;6.40;58.80;;;;;;5092509;28;20028;-35
2021/04/15 08:58:54;;;;;;;9.30;2.58;;;6.50;58.70;;;;;;5093192;28;20024;-36
2021/04/15 09:01:42;;;;;;;4.60;1.88;;;6.40;59.20;;;;;;5093546;28;20020;-37
2021/04/15 09:04:11;;;;;;;9.95;2.60;;;6.40;59.90;;;;;;5091463;28;20380;-35
2021/04/15 09:07:03;;;;;;;2.95;1.58;;;6.70;58.30;;;;;;5092835;28;20161;-35
2021/04/15 09:09:55;;;;;;;3.88;1.77;;;6.50;58.90;;;;;;5092565;28;20169;-37
2021/04/15 09:12:52;;;;;;;5.43;2.25;;;6.50;59.10;;;;;;5092777;28;20376;-36
2021/04/15 09:15:31;;;;;;;5.18;1.90;;;6.60;58.40;;;;;;5092844;28;20060;-37
2021/04/15 09:18:19;;;;;;;4.47;2.08;;;6.70;56.80;;;;;;5091496;28;20024;-36
2021/04/15 09:21:06;;;;;;;4.65;1.92;;;7.10;54.30;;;;;;5092426;28;20484;-35
2021/04/15 09:23:35;;;;;;;12.20;2.25;;;7.20;54.10;;;;;;5092542;28;20035;-35
2021/04/15 09:26:19;;;;;;;5.10;1.77;;;7.40;52.80;;;;;;5092722;28;20024;-35
2021/04/15 09:29:02;;;;;;;5.05;1.90;;;7.50;53.10;;;;;;5092890;28;20086;-36
2021/04/15 09:31:55;;;;;;;4.18;1.58;;;8.00;52.10;;;;;;5091223;28;20056;-36
2021/04/15 09:34:41;;;;;;;6.93;1.77;;;7.90;51.70;;;;;;5092670;28;20371;-36
2021/04/15 09:37:16;;;;;;;7.85;1.80;;;8.10;49.90;;;;;;5092649;28;20029;-36
2021/04/15 09:40:07;;;;;;;3.45;1.70;;;7.70;51.00;;;;;;5091461;28;20525;-36
2021/04/15 09:43:04;;;;;;;3.80;2.00;;;7.40;51.90;;;;;;5092622;28;20043;-36
2021/04/15 09:45:46;;;;;;;5.47;2.17;;;7.90;50.70;;;;;;5092337;28;20078;-36
2021/04/15 09:48:23;;;;;;;3.42;1.92;;;8.40;48.50;;;;;;5090989;28;20052;-36
2021/04/15 09:50:54;;;;;;;7.05;2.15;;;8.40;48.80;;;;;;5092288;28;20063;-36
2021/04/15 09:53:34;;;;;;;4.10;2.20;;;7.90;51.30;;;;;;5091648;28;20518;-36
2021/04/15 09:56:09;;;;;;;3.83;1.70;;;8.00;50.40;;;;;;5092443;28;20367;-36
2021/04/15 09:58:47;;;;;;;5.68;3.17;;;8.40;49.30;;;;;;5092978;28;20028;-36
2021/04/15 10:01:27;;;;;;;3.25;1.58;;;9.20;48.20;;;;;;5096105;28;20573;-36
2021/04/15 10:04:04;;;;;;;3.42;1.65;;;10.40;43.30;;;;;;5095998;28;20028;-35
2021/04/15 10:06:35;;;;;;;3.50;2.10;;;8.80;47.10;;;;;;5095911;28;20039;-36
2021/04/15 10:09:21;;;;;;;3.97;2.30;;;8.50;48.90;;;;;;5095602;28;20076;-36
2021/04/15 10:12:08;;;;;;;2.42;1.52;;;8.30;49.50;;;;;;5095964;28;20468;-36
2021/04/15 10:15:05;;;;;;;6.97;1.20;;;9.50;46.10;;;;;;5095482;28;20047;-35
2021/04/15 10:17:44;;;;;;;3.28;1.73;;;10.40;40.90;;;;;;5095437;28;20034;-37
2021/04/15 10:20:26;;;;;;;4.03;1.98;;;9.50;43.90;;;;;;5095600;28;20024;-36
2021/04/15 10:23:01;;;;;;;2.88;2.03;;;8.80;47.00;;;;;;5095710;28;20024;-35
2021/04/15 10:25:37;;;;;;;5.15;1.80;;;8.50;47.00;;;;;;5095881;28;20024;-35
2021/04/15 10:28:58;;;;;;;3.30;1.02;;;9.30;45.70;;;;;;5096363;28;20028;-36
2021/04/15 10:31:33;;;;;;;6.45;2.33;;;9.50;41.90;;;;;;5094380;28;20124;-36
2021/04/15 10:34:20;;;;;;;8.23;1.23;;;11.30;39.40;;;;;;5094441;28;20040;-36
2021/04/15 10:37:06;;;;;;;4.82;1.65;;;12.30;36.80;;;;;;5093883;28;20051;-36
2021/04/15 10:39:56;;;;;;;3.20;1.55;;;11.20;39.10;;;;;;5095962;28;20028;-36
2021/04/15 10:42:43;;;;;;;8.13;1.13;;;11.40;38.40;;;;;;5095824;28;20111;-36
2021/04/15 10:45:17;;;;;;;1.95;1.20;;;11.30;38.00;;;;;;5094939;28;20020;-35
2021/04/15 10:48:38;;;;;;;3.33;1.80;;;11.80;36.60;;;;;;5093317;28;20435;-37
2021/04/15 10:51:05;;;;;;;;;;;12.50;35.20;;;;;;5050597;28;20044;-36
2021/04/15 10:53:45;;;;;;;6.55;1.67;;;11.00;36.50;;;;;;5094038;28;19931;-36
2021/04/15 10:56:33;;;;;;;5.63;2.70;;;9.40;40.70;;;;;;5095089;28;20016;-36
2021/04/15 10:59:02;;;;;;;4.15;1.73;;;9.90;40.10;;;;;;5092936;28;20040;-36
2021/04/15 11:01:38;;;;;;;6.15;2.15;;;9.70;41.80;;;;;;5093466;28;20016;-36
2021/04/15 11:04:09;;;;;;;5.40;2.28;;;10.10;41.60;;;;;;5094411;28;20024;-36
2021/04/15 11:06:40;;;;;;;5.15;2.15;;;10.30;40.40;;;;;;5094423;28;20050;-36
2021/04/15 11:09:27;;;;;;;3.22;1.88;;;10.20;40.30;;;;;;5094442;28;20049;-36
2021/04/15 11:12:29;;;;;;;4.75;2.47;;;11.00;38.60;;;;;;5093841;28;20165;-36
2021/04/15 11:15:18;;;;;;;3.42;2.28;;;10.80;40.40;;;;;;5094623;28;20062;-35
2021/04/15 11:17:46;;;;;;;8.75;3.53;;;10.50;39.00;;;;;;5095281;28;20491;-35
2021/04/15 11:20:23;;;;;;;5.00;3.30;;;9.60;43.20;;;;;;5094894;28;20023;-35
2021/04/15 11:22:55;;;;;;;7.95;3.78;;;9.60;43.80;;;;;;5093372;28;20483;-36
2021/04/15 11:25:49;;;;;;;5.75;2.92;;;9.70;43.60;;;;;;5094460;28;20024;-36
2021/04/15 11:28:17;;;;;;;4.57;2.55;;;9.30;44.00;;;;;;5094290;28;20044;-36
2021/04/15 11:30:46;;;;;;;12.75;6.05;;;8.90;45.50;;;;;;5094450;28;20024;-36
2021/04/15 11:33:32;;;;;;;2.90;2.55;;;9.00;46.30;;;;;;5094436;28;20098;-36
2021/04/15 11:36:11;;;;;;;8.75;2.97;;;9.10;46.40;;;;;;5093523;28;20036;-35
2021/04/15 11:38:38;;;;;;;5.95;2.60;;;8.90;44.60;;;;;;5094610;28;20047;-36
2021/04/15 11:41:18;;;;;;;7.47;3.47;;;8.80;44.50;;;;;;5094660;28;20032;-36
2021/04/15 11:43:45;;;;;;;3.75;3.15;;;8.90;44.10;;;;;;5094751;28;20028;-36
2021/04/15 11:46:20;;;;;;;6.35;2.88;;;9.10;43.60;;;;;;5093114;28;20028;-35
2021/04/15 11:49:08;;;;;;;4.88;2.47;;;9.90;42.10;;;;;;5092766;28;20040;-36
2021/04/15 11:52:01;;;;;;;7.85;2.60;;;11.00;40.50;;;;;;5092584;28;20032;-35
2021/04/15 11:54:40;;;;;;;4.75;2.50;;;11.30;39.10;;;;;;5093777;28;20028;-36
2021/04/15 11:57:33;;;;;;;6.78;2.97;;;11.50;38.60;;;;;;5094077;28;20127;-37
2021/04/15 12:00:05;;;;;;;6.05;2.47;;;13.00;36.30;;;;;;5094365;28;20024;-37
2021/04/15 12:02:43;;;;;;;5.60;3.00;;;12.60;37.90;;;;;;5095791;28;20024;-39
2021/04/15 12:05:15;;;;;;;3.53;2.17;;;11.50;39.90;;;;;;5094031;28;20082;-41
2021/04/15 12:08:04;;;;;;;4.78;2.97;;;11.00;38.80;;;;;;5094916;28;20012;-37
2021/04/15 12:10:35;;;;;;;9.98;3.95;;;11.70;39.90;;;;;;5093676;28;20055;-36
2021/04/15 12:13:12;;;;;;;6.43;3.60;;;13.10;37.50;;;;;;5094087;28;20028;-35
2021/04/15 12:15:44;;;;;;;6.13;2.92;;;13.10;36.20;;;;;;5093731;28;20042;-36
2021/04/15 12:18:40;;;;;;;8.07;2.97;;;13.70;33.70;;;;;;5093774;28;20119;-36
2021/04/15 12:21:17;;;;;;;2.72;2.45;;;13.40;34.40;;;;;;5093207;28;20020;-36
2021/04/15 12:23:52;;;;;;;5.95;2.60;;;13.30;33.60;;;;;;5093703;28;20047;-37
2021/04/15 12:26:25;;;;;;;5.47;2.83;;;12.80;34.90;;;;;;5093740;28;20421;-36
2021/04/15 12:29:01;;;;;;;7.05;3.60;;;13.50;34.00;;;;;;5093451;28;20028;-36
2021/04/15 12:31:54;;;;;;;5.90;3.03;;;13.00;34.80;;;;;;5093789;28;20032;-46
2021/04/15 12:34:48;;;;;;;3.35;2.40;;;12.90;33.70;;;;;;5093753;28;20027;-41
2021/04/15 12:37:45;;;;;;;7.07;3.10;;;13.10;33.80;;;;;;5093463;28;20017;-37
2021/04/15 12:40:19;;;;;;;4.93;2.60;;;13.90;33.30;;;;;;5093305;28;20039;-36
2021/04/15 12:42:47;;;;;;;5.30;2.08;;;12.90;35.60;;;;;;5093056;28;20032;-37
2021/04/15 12:45:27;;;;;;;5.45;2.75;;;12.70;33.20;;;;;;5093430;28;20381;-38
2021/04/15 12:47:55;;;;;;;3.47;2.60;;;12.10;32.80;;;;;;5092077;28;20073;-36
2021/04/15 12:50:21;;;;;;;2.40;2.10;;;11.90;33.10;;;;;;5093126;28;20445;-37
2021/04/15 12:52:49;;;;;;;5.95;1.90;;;11.50;33.90;;;;;;5092652;28;20062;-36
2021/04/15 12:55:19;;;;;;;4.78;2.55;;;11.40;33.90;;;;;;5093165;28;20024;-36
2021/04/15 12:57:45;;;;;;;6.50;3.30;;;12.10;33.80;;;;;;5093291;28;20024;-37
2021/04/15 13:00:18;;;;;;;13.10;3.55;;;12.10;35.30;;;;;;5091758;28;20028;-36
2021/04/15 13:02:44;;;;;;;6.18;2.65;;;12.90;33.80;;;;;;5094287;28;20464;-36
2021/04/15 13:05:33;;;;;;;5.10;2.53;;;13.50;30.80;;;;;;5093046;28;20035;-37
2021/04/15 13:08:25;;;;;;;5.38;2.30;;;13.80;31.00;;;;;;5092578;28;20036;-37
2021/04/15 13:10:52;;;;;;;3.33;2.17;;;14.20;29.00;;;;;;5093109;28;20020;-37
2021/04/15 13:13:38;;;;;;;5.97;2.78;;;13.50;29.70;;;;;;5093296;28;20483;-36
2021/04/15 13:16:06;;;;;;;1.52;1.42;;;12.30;32.60;;;;;;5092420;28;20024;-36
2021/04/15 13:18:39;;;;;;;4.25;1.75;;;11.70;32.50;;;;;;5092690;28;20026;-36
2021/04/15 13:21:24;;;;;;;3.95;1.70;;;12.00;30.60;;;;;;5092632;28;20020;-36
2021/04/15 13:23:50;;;;;;;2.45;1.33;;;12.40;29.30;;;;;;5093332;28;20467;-36
2021/04/15 13:26:15;;;;;;;7.30;1.55;;;12.90;28.20;;;;;;5092627;28;20073;-36
2021/04/15 13:28:41;;;;;;;4.55;2.35;;;12.30;31.20;;;;;;5092708;28;20375;-36
2021/04/15 13:31:09;;;;;;;8.32;1.80;;;11.70;33.50;;;;;;5092322;28;20036;-36
2021/04/15 13:33:35;;;;;;;2.40;1.55;;;10.90;33.50;;;;;;5092709;28;20032;-39
2021/04/15 13:36:01;;;;;;;4.95;2.50;;;10.80;34.50;;;;;;5095814;28;20030;-37
2021/04/15 13:38:38;;;;;;;4.50;2.20;;;10.70;35.90;;;;;;5096323;28;20143;-37
2021/04/15 13:41:22;;;;;;;5.15;2.55;;;10.80;36.20;;;;;;5095768;28;20031;-37
2021/04/15 13:44:09;;;;;;;6.60;2.88;;;10.80;36.70;;;;;;5095973;28;20518;-38
2021/04/15 13:46:45;;;;;;;4.38;2.92;;;11.30;36.10;;;;;;5094937;28;20016;-36
2021/04/15 13:49:24;;;;;;;5.90;3.10;;;11.30;34.50;;;;;;5095275;28;20043;-37
2021/04/15 13:54:20;;;;;;;7.53;1.98;;;11.20;32.00;;;;;;5096365;28;20020;-36